sensor_id;sensor_type;location;lat;lon;timestamp;temperature;humidity
24162;DHT22;12318;51.262;7.066;2022-12-17T00:01:26;-2.40;99.90
24162;DHT22;12318;51.262;7.066;2022-12-17T00:04:10;-2.40;99.90
24162;DHT22;12318;51.262;7.066;2022-12-17T00:06:54;-2.30;99.90
24162;DHT22;12318;51.262;7.066;2022-12-17T00:09:38;-2.20;99.90
24162;DHT22;12318;51.262;7.066;2022-12-17T00:12:22;-2.10;99.90
24162;DHT22;12318;51.262;7.066;2022-12-17T00:15:12;-2.00;99.90
24162;DHT22;12318;51.262;7.066;2022-12-17T00:18:06;-2.00;99.90
24162;DHT22;12318;51.262;7.066;2022-12-17T00:20:54;-2.10;99.90
24162;DHT22;12318;51.262;7.066;2022-12-17T00:23:39;-2.30;99.90
24162;DHT22;12318;51.262;7.066;2022-12-17T00:26:23;-2.40;99.90
24162;DHT22;12318;51.262;7.066;2022-12-17T00:29:07;-2.30;99.90
24162;DHT22;12318;51.262;7.066;2022-12-17T00:31:51;-2.40;99.90
24162;DHT22;12318;51.262;7.066;2022-12-17T00:34:52;-2.40;99.90
24162;DHT22;12318;51.262;7.066;2022-12-17T00:37:37;-2.20;99.90
24162;DHT22;12318;51.262;7.066;2022-12-17T00:40:21;-2.00;99.90
24162;DHT22;12318;51.262;7.066;2022-12-17T00:43:07;-2.20;99.90
24162;DHT22;12318;51.262;7.066;2022-12-17T00:45:52;-2.30;99.90
24162;DHT22;12318;51.262;7.066;2022-12-17T00:48:37;-2.20;99.90
24162;DHT22;12318;51.262;7.066;2022-12-17T00:51:22;-2.10;99.90
24162;DHT22;12318;51.262;7.066;2022-12-17T00:54:06;-2.10;99.90
24162;DHT22;12318;51.262;7.066;2022-12-17T00:56:51;-2.20;99.90
24162;DHT22;12318;51.262;7.066;2022-12-17T00:59:35;-2.10;99.90
24162;DHT22;12318;51.262;7.066;2022-12-17T01:02:19;-2.10;99.90
24162;DHT22;12318;51.262;7.066;2022-12-17T01:05:07;-2.10;99.90
24162;DHT22;12318;51.262;7.066;2022-12-17T01:07:51;-2.10;99.90
24162;DHT22;12318;51.262;7.066;2022-12-17T01:10:36;-2.10;99.90
24162;DHT22;12318;51.262;7.066;2022-12-17T01:13:20;-2.10;99.90
24162;DHT22;12318;51.262;7.066;2022-12-17T01:16:14;-2.00;99.90
24162;DHT22;12318;51.262;7.066;2022-12-17T01:18:59;-2.00;99.90
24162;DHT22;12318;51.262;7.066;2022-12-17T01:21:44;-2.00;99.90
24162;DHT22;12318;51.262;7.066;2022-12-17T01:24:51;-2.10;99.90
24162;DHT22;12318;51.262;7.066;2022-12-17T01:27:35;-2.00;99.90
24162;DHT22;12318;51.262;7.066;2022-12-17T01:30:19;-2.20;99.90
24162;DHT22;12318;51.262;7.066;2022-12-17T01:33:11;-2.10;99.90
24162;DHT22;12318;51.262;7.066;2022-12-17T01:35:56;-2.10;99.90
24162;DHT22;12318;51.262;7.066;2022-12-17T01:38:41;-2.00;99.90
24162;DHT22;12318;51.262;7.066;2022-12-17T01:41:26;-2.00;99.90
24162;DHT22;12318;51.262;7.066;2022-12-17T01:47:43;-2.00;99.90
24162;DHT22;12318;51.262;7.066;2022-12-17T01:50:30;-2.10;99.90
24162;DHT22;12318;51.262;7.066;2022-12-17T01:53:18;-2.20;99.90
24162;DHT22;12318;51.262;7.066;2022-12-17T01:56:21;-2.10;99.90
24162;DHT22;12318;51.262;7.066;2022-12-17T01:59:11;-2.20;99.90
24162;DHT22;12318;51.262;7.066;2022-12-17T02:01:55;-2.20;99.90
24162;DHT22;12318;51.262;7.066;2022-12-17T02:04:40;-2.10;99.90
24162;DHT22;12318;51.262;7.066;2022-12-17T02:13:43;-2.00;99.90
24162;DHT22;12318;51.262;7.066;2022-12-17T02:16:40;-2.10;99.90
24162;DHT22;12318;51.262;7.066;2022-12-17T02:19:30;-2.10;99.90
24162;DHT22;12318;51.262;7.066;2022-12-17T02:28:33;-2.00;99.90
24162;DHT22;12318;51.262;7.066;2022-12-17T02:31:18;-2.00;99.90
24162;DHT22;12318;51.262;7.066;2022-12-17T02:34:03;-2.10;99.90
24162;DHT22;12318;51.262;7.066;2022-12-17T02:36:47;-2.20;99.90
24162;DHT22;12318;51.262;7.066;2022-12-17T02:39:31;-2.30;99.90
24162;DHT22;12318;51.262;7.066;2022-12-17T02:42:16;-2.30;99.90
24162;DHT22;12318;51.262;7.066;2022-12-17T02:45:02;-2.20;99.90
24162;DHT22;12318;51.262;7.066;2022-12-17T02:47:46;-2.10;99.90
24162;DHT22;12318;51.262;7.066;2022-12-17T02:50:33;-2.00;99.90
24162;DHT22;12318;51.262;7.066;2022-12-17T02:53:19;-2.20;99.90
24162;DHT22;12318;51.262;7.066;2022-12-17T02:56:26;-2.40;99.90
24162;DHT22;12318;51.262;7.066;2022-12-17T02:59:10;-2.30;99.90
24162;DHT22;12318;51.262;7.066;2022-12-17T03:01:57;-2.20;99.90
24162;DHT22;12318;51.262;7.066;2022-12-17T03:05:11;-2.20;99.90
24162;DHT22;12318;51.262;7.066;2022-12-17T03:07:56;-2.20;99.90
24162;DHT22;12318;51.262;7.066;2022-12-17T03:10:41;-2.10;99.90
24162;DHT22;12318;51.262;7.066;2022-12-17T03:13:28;-2.10;99.90
24162;DHT22;12318;51.262;7.066;2022-12-17T03:16:14;-2.00;99.90
24162;DHT22;12318;51.262;7.066;2022-12-17T03:19:00;-2.10;99.90
24162;DHT22;12318;51.262;7.066;2022-12-17T03:21:45;-2.00;99.90
24162;DHT22;12318;51.262;7.066;2022-12-17T03:24:29;-2.00;99.90
24162;DHT22;12318;51.262;7.066;2022-12-17T03:27:14;-2.30;99.90
24162;DHT22;12318;51.262;7.066;2022-12-17T03:29:59;-2.30;99.90
24162;DHT22;12318;51.262;7.066;2022-12-17T03:32:45;-2.30;99.90
24162;DHT22;12318;51.262;7.066;2022-12-17T03:35:30;-2.40;99.90
24162;DHT22;12318;51.262;7.066;2022-12-17T03:38:26;-2.30;99.90
24162;DHT22;12318;51.262;7.066;2022-12-17T03:41:10;-2.30;99.90
24162;DHT22;12318;51.262;7.066;2022-12-17T03:43:56;-2.40;99.90
24162;DHT22;12318;51.262;7.066;2022-12-17T03:46:40;-2.50;99.90
24162;DHT22;12318;51.262;7.066;2022-12-17T03:49:50;-2.50;99.90
24162;DHT22;12318;51.262;7.066;2022-12-17T03:52:36;-2.30;99.90
24162;DHT22;12318;51.262;7.066;2022-12-17T03:55:21;-2.30;99.90
24162;DHT22;12318;51.262;7.066;2022-12-17T03:58:05;-2.40;99.90
24162;DHT22;12318;51.262;7.066;2022-12-17T04:00:49;-2.40;99.90
24162;DHT22;12318;51.262;7.066;2022-12-17T04:03:37;-2.50;99.90
24162;DHT22;12318;51.262;7.066;2022-12-17T04:06:24;-2.40;99.90
24162;DHT22;12318;51.262;7.066;2022-12-17T04:09:14;-2.40;99.90
24162;DHT22;12318;51.262;7.066;2022-12-17T04:15:11;-2.50;99.90
24162;DHT22;12318;51.262;7.066;2022-12-17T04:17:55;-2.50;99.90
24162;DHT22;12318;51.262;7.066;2022-12-17T04:20:42;-2.40;99.90
24162;DHT22;12318;51.262;7.066;2022-12-17T04:23:26;-2.30;99.90
24162;DHT22;12318;51.262;7.066;2022-12-17T04:26:10;-2.30;99.90
24162;DHT22;12318;51.262;7.066;2022-12-17T04:28:54;-2.30;99.90
24162;DHT22;12318;51.262;7.066;2022-12-17T04:31:38;-2.20;99.90
24162;DHT22;12318;51.262;7.066;2022-12-17T04:34:22;-2.40;99.90
24162;DHT22;12318;51.262;7.066;2022-12-17T04:37:09;-2.50;99.90
24162;DHT22;12318;51.262;7.066;2022-12-17T04:39:53;-2.60;99.90
24162;DHT22;12318;51.262;7.066;2022-12-17T04:42:37;-2.70;99.90
24162;DHT22;12318;51.262;7.066;2022-12-17T04:45:21;-2.50;99.90
24162;DHT22;12318;51.262;7.066;2022-12-17T04:48:09;-2.50;99.90
24162;DHT22;12318;51.262;7.066;2022-12-17T04:50:54;-2.40;99.90
24162;DHT22;12318;51.262;7.066;2022-12-17T04:53:38;-2.40;99.90
24162;DHT22;12318;51.262;7.066;2022-12-17T04:56:25;-2.30;99.90
24162;DHT22;12318;51.262;7.066;2022-12-17T04:59:36;-2.30;99.90
24162;DHT22;12318;51.262;7.066;2022-12-17T05:02:22;-2.30;99.90
24162;DHT22;12318;51.262;7.066;2022-12-17T05:05:08;-2.20;99.90
24162;DHT22;12318;51.262;7.066;2022-12-17T05:07:55;-2.20;99.90
24162;DHT22;12318;51.262;7.066;2022-12-17T05:10:39;-2.20;99.90
24162;DHT22;12318;51.262;7.066;2022-12-17T05:13:24;-2.30;99.90
24162;DHT22;12318;51.262;7.066;2022-12-17T05:16:22;-2.30;99.90
24162;DHT22;12318;51.262;7.066;2022-12-17T05:19:06;-2.60;99.90
24162;DHT22;12318;51.262;7.066;2022-12-17T05:21:50;-2.60;99.90
24162;DHT22;12318;51.262;7.066;2022-12-17T05:24:41;-2.60;99.90
24162;DHT22;12318;51.262;7.066;2022-12-17T05:27:28;-2.60;99.90
24162;DHT22;12318;51.262;7.066;2022-12-17T05:30:12;-2.60;99.90
24162;DHT22;12318;51.262;7.066;2022-12-17T05:33:02;-2.70;99.90
24162;DHT22;12318;51.262;7.066;2022-12-17T05:35:46;-2.70;99.90
24162;DHT22;12318;51.262;7.066;2022-12-17T05:38:31;-2.80;99.90
24162;DHT22;12318;51.262;7.066;2022-12-17T05:41:15;-2.80;99.90
24162;DHT22;12318;51.262;7.066;2022-12-17T05:44:09;-2.80;99.90
24162;DHT22;12318;51.262;7.066;2022-12-17T05:46:53;-2.80;99.90
24162;DHT22;12318;51.262;7.066;2022-12-17T05:49:37;-2.80;99.90
24162;DHT22;12318;51.262;7.066;2022-12-17T05:52:21;-2.70;99.90
24162;DHT22;12318;51.262;7.066;2022-12-17T05:55:05;-2.70;99.90
24162;DHT22;12318;51.262;7.066;2022-12-17T05:57:49;-2.70;99.90
24162;DHT22;12318;51.262;7.066;2022-12-17T06:00:33;-2.80;99.90
24162;DHT22;12318;51.262;7.066;2022-12-17T06:03:17;-2.80;99.90
24162;DHT22;12318;51.262;7.066;2022-12-17T06:06:01;-3.00;99.90
24162;DHT22;12318;51.262;7.066;2022-12-17T06:08:45;-3.20;99.90
24162;DHT22;12318;51.262;7.066;2022-12-17T06:11:29;-3.20;99.90
24162;DHT22;12318;51.262;7.066;2022-12-17T06:14:40;-3.20;99.90
24162;DHT22;12318;51.262;7.066;2022-12-17T06:17:25;-3.30;99.90
24162;DHT22;12318;51.262;7.066;2022-12-17T06:20:10;-3.20;99.90
24162;DHT22;12318;51.262;7.066;2022-12-17T06:23:09;-3.20;99.90
24162;DHT22;12318;51.262;7.066;2022-12-17T06:25:55;-3.10;99.90
24162;DHT22;12318;51.262;7.066;2022-12-17T06:28:40;-3.20;99.90
24162;DHT22;12318;51.262;7.066;2022-12-17T06:31:25;-3.20;99.90
24162;DHT22;12318;51.262;7.066;2022-12-17T06:34:12;-3.40;99.90
24162;DHT22;12318;51.262;7.066;2022-12-17T06:36:56;-3.40;99.90
24162;DHT22;12318;51.262;7.066;2022-12-17T06:39:42;-3.60;99.90
24162;DHT22;12318;51.262;7.066;2022-12-17T06:42:26;-3.60;99.90
24162;DHT22;12318;51.262;7.066;2022-12-17T06:45:10;-3.60;99.90
24162;DHT22;12318;51.262;7.066;2022-12-17T06:48:02;-3.70;99.90
24162;DHT22;12318;51.262;7.066;2022-12-17T06:50:47;-3.70;99.90
24162;DHT22;12318;51.262;7.066;2022-12-17T06:53:41;-3.60;99.90
24162;DHT22;12318;51.262;7.066;2022-12-17T06:56:25;-3.70;99.90
24162;DHT22;12318;51.262;7.066;2022-12-17T06:59:10;-3.70;99.90
24162;DHT22;12318;51.262;7.066;2022-12-17T07:01:54;-3.70;99.90
24162;DHT22;12318;51.262;7.066;2022-12-17T07:04:39;-3.80;99.90
24162;DHT22;12318;51.262;7.066;2022-12-17T07:07:23;-3.70;99.90
24162;DHT22;12318;51.262;7.066;2022-12-17T07:10:08;-3.70;99.90
24162;DHT22;12318;51.262;7.066;2022-12-17T07:12:52;-3.70;99.90
24162;DHT22;12318;51.262;7.066;2022-12-17T07:15:36;-3.70;99.90
24162;DHT22;12318;51.262;7.066;2022-12-17T07:18:23;-3.60;99.90
24162;DHT22;12318;51.262;7.066;2022-12-17T07:21:07;-3.60;99.90
24162;DHT22;12318;51.262;7.066;2022-12-17T07:24:04;-3.70;99.90
24162;DHT22;12318;51.262;7.066;2022-12-17T07:26:48;-3.70;99.90
24162;DHT22;12318;51.262;7.066;2022-12-17T07:29:32;-3.70;99.90
24162;DHT22;12318;51.262;7.066;2022-12-17T07:32:17;-3.90;99.90
24162;DHT22;12318;51.262;7.066;2022-12-17T07:35:02;-3.90;99.90
24162;DHT22;12318;51.262;7.066;2022-12-17T07:38:03;-3.70;99.90
24162;DHT22;12318;51.262;7.066;2022-12-17T07:40:50;-3.90;99.90
24162;DHT22;12318;51.262;7.066;2022-12-17T07:43:36;-3.90;99.90
24162;DHT22;12318;51.262;7.066;2022-12-17T07:46:21;-4.00;99.90
24162;DHT22;12318;51.262;7.066;2022-12-17T07:49:08;-4.20;99.90
24162;DHT22;12318;51.262;7.066;2022-12-17T07:51:53;-4.30;99.90
24162;DHT22;12318;51.262;7.066;2022-12-17T07:54:37;-4.10;99.90
24162;DHT22;12318;51.262;7.066;2022-12-17T07:57:24;-4.00;99.90
24162;DHT22;12318;51.262;7.066;2022-12-17T08:00:21;-3.80;99.90
24162;DHT22;12318;51.262;7.066;2022-12-17T08:03:05;-3.90;99.90
24162;DHT22;12318;51.262;7.066;2022-12-17T08:05:49;-3.80;99.90
24162;DHT22;12318;51.262;7.066;2022-12-17T08:08:41;-4.00;99.90
24162;DHT22;12318;51.262;7.066;2022-12-17T08:11:25;-4.10;99.90
24162;DHT22;12318;51.262;7.066;2022-12-17T08:14:10;-4.30;99.90
24162;DHT22;12318;51.262;7.066;2022-12-17T08:17:01;-4.40;99.90
24162;DHT22;12318;51.262;7.066;2022-12-17T08:19:45;-4.20;99.90
24162;DHT22;12318;51.262;7.066;2022-12-17T08:22:29;-4.20;99.90
24162;DHT22;12318;51.262;7.066;2022-12-17T08:25:13;-4.20;99.90
24162;DHT22;12318;51.262;7.066;2022-12-17T08:28:03;-4.30;99.90
24162;DHT22;12318;51.262;7.066;2022-12-17T08:30:49;-4.60;99.90
24162;DHT22;12318;51.262;7.066;2022-12-17T08:33:33;-4.60;99.90
24162;DHT22;12318;51.262;7.066;2022-12-17T08:36:18;-4.80;99.90
24162;DHT22;12318;51.262;7.066;2022-12-17T08:39:02;-4.90;99.90
24162;DHT22;12318;51.262;7.066;2022-12-17T08:41:47;-4.90;99.90
24162;DHT22;12318;51.262;7.066;2022-12-17T08:44:31;-4.90;99.90
24162;DHT22;12318;51.262;7.066;2022-12-17T08:47:20;-5.00;99.90
24162;DHT22;12318;51.262;7.066;2022-12-17T08:50:05;-4.80;99.90
24162;DHT22;12318;51.262;7.066;2022-12-17T08:52:59;-4.70;99.90
24162;DHT22;12318;51.262;7.066;2022-12-17T08:55:44;-4.70;99.90
24162;DHT22;12318;51.262;7.066;2022-12-17T08:58:35;-4.80;99.90
24162;DHT22;12318;51.262;7.066;2022-12-17T09:01:19;-5.00;99.90
24162;DHT22;12318;51.262;7.066;2022-12-17T09:04:04;-5.20;99.90
24162;DHT22;12318;51.262;7.066;2022-12-17T09:06:48;-5.10;99.90
24162;DHT22;12318;51.262;7.066;2022-12-17T09:09:35;-5.10;99.90
24162;DHT22;12318;51.262;7.066;2022-12-17T09:12:19;-5.10;99.90
24162;DHT22;12318;51.262;7.066;2022-12-17T09:15:04;-5.20;99.90
24162;DHT22;12318;51.262;7.066;2022-12-17T09:17:55;-5.10;99.90
24162;DHT22;12318;51.262;7.066;2022-12-17T09:20:39;-5.00;99.90
24162;DHT22;12318;51.262;7.066;2022-12-17T09:23:23;-5.00;99.90
24162;DHT22;12318;51.262;7.066;2022-12-17T09:26:07;-4.90;99.90
24162;DHT22;12318;51.262;7.066;2022-12-17T09:28:51;-5.10;99.90
24162;DHT22;12318;51.262;7.066;2022-12-17T09:31:36;-5.10;99.90
24162;DHT22;12318;51.262;7.066;2022-12-17T09:34:21;-5.00;99.90
24162;DHT22;12318;51.262;7.066;2022-12-17T09:37:05;-5.20;99.90
24162;DHT22;12318;51.262;7.066;2022-12-17T09:39:49;-5.10;99.90
24162;DHT22;12318;51.262;7.066;2022-12-17T09:43:21;-4.90;99.90
24162;DHT22;12318;51.262;7.066;2022-12-17T09:46:44;-4.80;99.90
24162;DHT22;12318;51.262;7.066;2022-12-17T09:49:31;-4.90;99.90
24162;DHT22;12318;51.262;7.066;2022-12-17T09:52:26;-4.70;99.90
24162;DHT22;12318;51.262;7.066;2022-12-17T09:55:39;-4.70;99.90
24162;DHT22;12318;51.262;7.066;2022-12-17T09:58:23;-4.40;99.90
24162;DHT22;12318;51.262;7.066;2022-12-17T10:01:24;-4.30;99.90
24162;DHT22;12318;51.262;7.066;2022-12-17T10:04:30;-4.30;99.90
24162;DHT22;12318;51.262;7.066;2022-12-17T10:07:21;-4.30;99.90
24162;DHT22;12318;51.262;7.066;2022-12-17T10:10:19;-4.10;99.90
24162;DHT22;12318;51.262;7.066;2022-12-17T10:13:15;-4.00;99.90
24162;DHT22;12318;51.262;7.066;2022-12-17T10:16:00;-4.00;99.90
24162;DHT22;12318;51.262;7.066;2022-12-17T10:19:10;-3.90;99.90
24162;DHT22;12318;51.262;7.066;2022-12-17T10:22:04;-3.90;99.90
24162;DHT22;12318;51.262;7.066;2022-12-17T10:24:49;-4.20;99.90
24162;DHT22;12318;51.262;7.066;2022-12-17T10:27:33;-4.30;99.90
24162;DHT22;12318;51.262;7.066;2022-12-17T10:30:17;-4.20;99.90
24162;DHT22;12318;51.262;7.066;2022-12-17T10:33:06;-4.20;99.90
24162;DHT22;12318;51.262;7.066;2022-12-17T10:35:51;-4.10;99.90
24162;DHT22;12318;51.262;7.066;2022-12-17T10:38:35;-3.90;99.90
24162;DHT22;12318;51.262;7.066;2022-12-17T10:41:25;-3.70;99.90
24162;DHT22;12318;51.262;7.066;2022-12-17T10:44:32;-3.50;99.90
24162;DHT22;12318;51.262;7.066;2022-12-17T10:47:19;-3.40;99.90
24162;DHT22;12318;51.262;7.066;2022-12-17T10:50:09;-3.20;99.90
24162;DHT22;12318;51.262;7.066;2022-12-17T10:52:53;-3.10;99.90
24162;DHT22;12318;51.262;7.066;2022-12-17T10:55:53;-3.10;99.90
24162;DHT22;12318;51.262;7.066;2022-12-17T10:58:44;-3.20;99.90
24162;DHT22;12318;51.262;7.066;2022-12-17T11:01:34;-3.30;99.90
24162;DHT22;12318;51.262;7.066;2022-12-17T11:04:23;-3.50;99.90
24162;DHT22;12318;51.262;7.066;2022-12-17T11:07:11;-3.40;99.90
24162;DHT22;12318;51.262;7.066;2022-12-17T11:09:59;-3.30;99.90
24162;DHT22;12318;51.262;7.066;2022-12-17T11:12:51;-3.40;99.90
24162;DHT22;12318;51.262;7.066;2022-12-17T11:15:48;-3.60;99.90
24162;DHT22;12318;51.262;7.066;2022-12-17T11:21:30;-3.40;99.90
24162;DHT22;12318;51.262;7.066;2022-12-17T11:24:23;-3.20;99.90
24162;DHT22;12318;51.262;7.066;2022-12-17T11:27:11;-3.40;99.90
24162;DHT22;12318;51.262;7.066;2022-12-17T11:29:58;-3.50;99.90
24162;DHT22;12318;51.262;7.066;2022-12-17T11:35:59;-3.40;99.90
24162;DHT22;12318;51.262;7.066;2022-12-17T11:42:21;-3.50;99.90
24162;DHT22;12318;51.262;7.066;2022-12-17T11:45:23;-3.40;99.90
24162;DHT22;12318;51.262;7.066;2022-12-17T11:48:26;-3.30;99.90
24162;DHT22;12318;51.262;7.066;2022-12-17T11:52:06;-3.20;99.90
24162;DHT22;12318;51.262;7.066;2022-12-17T11:58:06;-2.90;99.90
24162;DHT22;12318;51.262;7.066;2022-12-17T12:10:25;-2.90;99.90
24162;DHT22;12318;51.262;7.066;2022-12-17T12:13:36;-2.90;99.90
24162;DHT22;12318;51.262;7.066;2022-12-17T12:17:08;-2.90;99.90
24162;DHT22;12318;51.262;7.066;2022-12-17T12:26:17;-2.80;99.90
24162;DHT22;12318;51.262;7.066;2022-12-17T12:32:34;-2.70;99.90
24162;DHT22;12318;51.262;7.066;2022-12-17T12:35:23;-2.90;99.90
24162;DHT22;12318;51.262;7.066;2022-12-17T12:38:22;-2.90;99.90
24162;DHT22;12318;51.262;7.066;2022-12-17T12:41:23;-2.80;99.90
24162;DHT22;12318;51.262;7.066;2022-12-17T12:44:43;-2.70;99.90
24162;DHT22;12318;51.262;7.066;2022-12-17T12:50:58;-2.70;99.90
24162;DHT22;12318;51.262;7.066;2022-12-17T12:53:43;-2.60;99.90
24162;DHT22;12318;51.262;7.066;2022-12-17T12:56:35;-2.60;99.90
24162;DHT22;12318;51.262;7.066;2022-12-17T12:59:34;-2.60;99.90
24162;DHT22;12318;51.262;7.066;2022-12-17T13:02:31;-2.50;99.90
24162;DHT22;12318;51.262;7.066;2022-12-17T13:08:25;-2.20;99.90
24162;DHT22;12318;51.262;7.066;2022-12-17T13:10:53;-2.10;99.90
24162;DHT22;12318;51.262;7.066;2022-12-17T13:13:33;-2.10;99.90
24162;DHT22;12318;51.262;7.066;2022-12-17T13:16:30;-2.10;99.90
24162;DHT22;12318;51.262;7.066;2022-12-17T13:22:29;-2.30;99.90
24162;DHT22;12318;51.262;7.066;2022-12-17T13:25:18;-2.10;99.90
24162;DHT22;12318;51.262;7.066;2022-12-17T13:27:44;-2.10;99.90
24162;DHT22;12318;51.262;7.066;2022-12-17T13:30:33;-2.00;99.90
24162;DHT22;12318;51.262;7.066;2022-12-17T13:38:25;-2.00;99.90
24162;DHT22;12318;51.262;7.066;2022-12-17T13:43:30;-1.90;99.90
24162;DHT22;12318;51.262;7.066;2022-12-17T13:45:57;-1.90;99.90
24162;DHT22;12318;51.262;7.066;2022-12-17T13:48:26;-1.90;99.90
24162;DHT22;12318;51.262;7.066;2022-12-17T13:51:05;-1.90;99.90
24162;DHT22;12318;51.262;7.066;2022-12-17T13:53:31;-1.80;99.90
24162;DHT22;12318;51.262;7.066;2022-12-17T13:56:00;-1.80;99.90
24162;DHT22;12318;51.262;7.066;2022-12-17T13:58:31;-1.90;99.90
24162;DHT22;12318;51.262;7.066;2022-12-17T14:01:07;-1.90;99.90
24162;DHT22;12318;51.262;7.066;2022-12-17T14:03:33;-1.80;99.90
24162;DHT22;12318;51.262;7.066;2022-12-17T14:06:00;-1.90;99.90
24162;DHT22;12318;51.262;7.066;2022-12-17T14:08:28;-1.90;99.90
24162;DHT22;12318;51.262;7.066;2022-12-17T14:10:55;-1.90;99.90
24162;DHT22;12318;51.262;7.066;2022-12-17T14:13:43;-1.80;99.90
24162;DHT22;12318;51.262;7.066;2022-12-17T14:16:15;-1.80;99.90
24162;DHT22;12318;51.262;7.066;2022-12-17T14:18:53;-1.90;99.90
24162;DHT22;12318;51.262;7.066;2022-12-17T14:21:19;-1.90;99.90
24162;DHT22;12318;51.262;7.066;2022-12-17T14:23:48;-1.80;99.90
24162;DHT22;12318;51.262;7.066;2022-12-17T14:26:15;-1.80;99.90
24162;DHT22;12318;51.262;7.066;2022-12-17T14:28:49;-1.80;99.90
24162;DHT22;12318;51.262;7.066;2022-12-17T14:31:19;-1.80;99.90
24162;DHT22;12318;51.262;7.066;2022-12-17T14:34:04;-1.80;99.90
24162;DHT22;12318;51.262;7.066;2022-12-17T14:36:40;-1.80;99.90
24162;DHT22;12318;51.262;7.066;2022-12-17T14:39:29;-1.90;99.90
24162;DHT22;12318;51.262;7.066;2022-12-17T14:42:17;-1.90;99.90
24162;DHT22;12318;51.262;7.066;2022-12-17T14:45:01;-1.90;99.90
24162;DHT22;12318;51.262;7.066;2022-12-17T14:47:29;-1.90;99.90
24162;DHT22;12318;51.262;7.066;2022-12-17T14:50:00;-1.90;99.90
24162;DHT22;12318;51.262;7.066;2022-12-17T14:52:44;-1.90;99.90
24162;DHT22;12318;51.262;7.066;2022-12-17T14:55:28;-1.90;99.90
24162;DHT22;12318;51.262;7.066;2022-12-17T14:58:21;-1.90;99.90
24162;DHT22;12318;51.262;7.066;2022-12-17T15:01:11;-1.90;99.90
24162;DHT22;12318;51.262;7.066;2022-12-17T15:03:40;-1.80;99.90
24162;DHT22;12318;51.262;7.066;2022-12-17T15:06:09;-1.90;99.90
24162;DHT22;12318;51.262;7.066;2022-12-17T15:08:39;-1.90;99.90
24162;DHT22;12318;51.262;7.066;2022-12-17T15:11:18;-1.90;99.90
24162;DHT22;12318;51.262;7.066;2022-12-17T15:13:44;-1.90;99.90
24162;DHT22;12318;51.262;7.066;2022-12-17T15:16:11;-2.00;99.90
24162;DHT22;12318;51.262;7.066;2022-12-17T15:18:37;-2.00;99.90
24162;DHT22;12318;51.262;7.066;2022-12-17T15:21:08;-2.00;99.90
24162;DHT22;12318;51.262;7.066;2022-12-17T15:23:39;-2.00;99.90
24162;DHT22;12318;51.262;7.066;2022-12-17T15:26:08;-2.00;99.90
24162;DHT22;12318;51.262;7.066;2022-12-17T15:28:38;-2.00;99.90
24162;DHT22;12318;51.262;7.066;2022-12-17T15:31:09;-2.00;99.90
24162;DHT22;12318;51.262;7.066;2022-12-17T15:33:35;-2.00;99.90
24162;DHT22;12318;51.262;7.066;2022-12-17T15:36:08;-2.20;99.90
24162;DHT22;12318;51.262;7.066;2022-12-17T15:38:34;-2.20;99.90
24162;DHT22;12318;51.262;7.066;2022-12-17T15:41:05;-2.20;99.90
24162;DHT22;12318;51.262;7.066;2022-12-17T15:44:10;-2.30;99.90
24162;DHT22;12318;51.262;7.066;2022-12-17T15:46:38;-2.30;99.90
24162;DHT22;12318;51.262;7.066;2022-12-17T15:49:07;-2.30;99.90
24162;DHT22;12318;51.262;7.066;2022-12-17T15:51:33;-2.30;99.90
24162;DHT22;12318;51.262;7.066;2022-12-17T15:53:59;-2.30;99.90
24162;DHT22;12318;51.262;7.066;2022-12-17T15:56:27;-2.30;99.90
24162;DHT22;12318;51.262;7.066;2022-12-17T15:58:56;-2.40;99.90
24162;DHT22;12318;51.262;7.066;2022-12-17T16:01:22;-2.30;99.90
24162;DHT22;12318;51.262;7.066;2022-12-17T16:03:48;-2.60;99.90
24162;DHT22;12318;51.262;7.066;2022-12-17T16:06:19;-2.60;99.90
24162;DHT22;12318;51.262;7.066;2022-12-17T16:08:45;-2.60;99.90
24162;DHT22;12318;51.262;7.066;2022-12-17T16:11:14;-2.50;99.90
24162;DHT22;12318;51.262;7.066;2022-12-17T16:16:50;-2.50;99.90
24162;DHT22;12318;51.262;7.066;2022-12-17T16:19:18;-2.50;99.90
24162;DHT22;12318;51.262;7.066;2022-12-17T16:21:47;-2.40;99.90
24162;DHT22;12318;51.262;7.066;2022-12-17T16:24:15;-2.40;99.90
24162;DHT22;12318;51.262;7.066;2022-12-17T16:26:49;-2.40;99.90
24162;DHT22;12318;51.262;7.066;2022-12-17T16:29:20;-2.50;99.90
24162;DHT22;12318;51.262;7.066;2022-12-17T16:31:51;-2.60;99.90
24162;DHT22;12318;51.262;7.066;2022-12-17T16:34:22;-2.60;99.90
24162;DHT22;12318;51.262;7.066;2022-12-17T16:36:57;-2.60;99.90
24162;DHT22;12318;51.262;7.066;2022-12-17T16:39:34;-2.60;99.90
24162;DHT22;12318;51.262;7.066;2022-12-17T16:42:11;-2.70;99.90
24162;DHT22;12318;51.262;7.066;2022-12-17T16:44:49;-2.80;99.90
24162;DHT22;12318;51.262;7.066;2022-12-17T16:47:21;-2.80;99.90
24162;DHT22;12318;51.262;7.066;2022-12-17T16:50:11;-2.90;99.90
24162;DHT22;12318;51.262;7.066;2022-12-17T16:52:45;-2.90;99.90
24162;DHT22;12318;51.262;7.066;2022-12-17T16:55:18;-2.90;99.90
24162;DHT22;12318;51.262;7.066;2022-12-17T16:57:46;-2.80;99.90
24162;DHT22;12318;51.262;7.066;2022-12-17T17:00:19;-2.80;99.90
24162;DHT22;12318;51.262;7.066;2022-12-17T17:03:10;-2.80;99.90
24162;DHT22;12318;51.262;7.066;2022-12-17T17:05:39;-2.70;99.90
24162;DHT22;12318;51.262;7.066;2022-12-17T17:08:13;-2.60;99.90
24162;DHT22;12318;51.262;7.066;2022-12-17T17:10:48;-2.60;99.90
24162;DHT22;12318;51.262;7.066;2022-12-17T17:13:13;-2.70;99.90
24162;DHT22;12318;51.262;7.066;2022-12-17T17:15:43;-2.80;99.90
24162;DHT22;12318;51.262;7.066;2022-12-17T17:18:20;-2.80;99.90
24162;DHT22;12318;51.262;7.066;2022-12-17T17:20:46;-2.80;99.90
24162;DHT22;12318;51.262;7.066;2022-12-17T17:23:22;-2.80;99.90
24162;DHT22;12318;51.262;7.066;2022-12-17T17:25:50;-2.80;99.90
24162;DHT22;12318;51.262;7.066;2022-12-17T17:28:25;-2.90;99.90
24162;DHT22;12318;51.262;7.066;2022-12-17T17:30:57;-2.90;99.90
24162;DHT22;12318;51.262;7.066;2022-12-17T17:33:35;-2.90;99.90
24162;DHT22;12318;51.262;7.066;2022-12-17T17:36:13;-2.90;99.90
24162;DHT22;12318;51.262;7.066;2022-12-17T17:38:41;-2.90;99.90
24162;DHT22;12318;51.262;7.066;2022-12-17T17:41:12;-2.80;99.90
24162;DHT22;12318;51.262;7.066;2022-12-17T17:43:41;-2.80;99.90
24162;DHT22;12318;51.262;7.066;2022-12-17T17:46:13;-2.80;99.90
24162;DHT22;12318;51.262;7.066;2022-12-17T17:48:40;-2.80;99.90
24162;DHT22;12318;51.262;7.066;2022-12-17T17:51:26;-2.90;99.90
24162;DHT22;12318;51.262;7.066;2022-12-17T17:53:53;-2.90;99.90
24162;DHT22;12318;51.262;7.066;2022-12-17T17:56:29;-2.80;99.90
24162;DHT22;12318;51.262;7.066;2022-12-17T17:59:03;-2.90;99.90
24162;DHT22;12318;51.262;7.066;2022-12-17T18:01:42;-2.80;99.90
24162;DHT22;12318;51.262;7.066;2022-12-17T18:04:13;-2.90;99.90
24162;DHT22;12318;51.262;7.066;2022-12-17T18:06:42;-2.80;99.90
24162;DHT22;12318;51.262;7.066;2022-12-17T18:09:10;-2.80;99.90
24162;DHT22;12318;51.262;7.066;2022-12-17T18:11:44;-2.80;99.90
24162;DHT22;12318;51.262;7.066;2022-12-17T18:14:15;-2.80;99.90
24162;DHT22;12318;51.262;7.066;2022-12-17T18:16:44;-2.70;99.90
24162;DHT22;12318;51.262;7.066;2022-12-17T18:21:48;-2.60;99.90
24162;DHT22;12318;51.262;7.066;2022-12-17T18:24:21;-2.70;99.90
24162;DHT22;12318;51.262;7.066;2022-12-17T18:26:50;-2.70;99.90
24162;DHT22;12318;51.262;7.066;2022-12-17T18:29:21;-2.70;99.90